sensor_id;sensor_type;location;lat;lon;timestamp;P1;durP1;ratioP1;P2;durP2;ratioP2
29938;SDS011;16799;50.844;5.304;2022-11-27T00:01:17;10.93;;;5.40;;
29938;SDS011;16799;50.844;5.304;2022-11-27T00:03:45;11.27;;;5.73;;
29938;SDS011;16799;50.844;5.304;2022-11-27T00:06:12;12.80;;;6.63;;
29938;SDS011;16799;50.844;5.304;2022-11-27T00:08:39;15.03;;;5.00;;
29938;SDS011;16799;50.844;5.304;2022-11-27T00:11:07;9.03;;;5.73;;
29938;SDS011;16799;50.844;5.304;2022-11-27T00:13:34;6.27;;;4.40;;
29938;SDS011;16799;50.844;5.304;2022-11-27T00:16:00;11.60;;;4.97;;
29938;SDS011;16799;50.844;5.304;2022-11-27T00:18:27;7.23;;;4.60;;
29938;SDS011;16799;50.844;5.304;2022-11-27T00:20:53;8.53;;;4.47;;
29938;SDS011;16799;50.844;5.304;2022-11-27T00:23:19;7.63;;;4.50;;
29938;SDS011;16799;50.844;5.304;2022-11-27T00:25:48;10.27;;;4.63;;
29938;SDS011;16799;50.844;5.304;2022-11-27T00:28:15;9.97;;;5.03;;
29938;SDS011;16799;50.844;5.304;2022-11-27T00:30:40;6.97;;;5.30;;
29938;SDS011;16799;50.844;5.304;2022-11-27T00:33:06;18.03;;;5.27;;
29938;SDS011;16799;50.844;5.304;2022-11-27T00:35:32;10.63;;;5.90;;
29938;SDS011;16799;50.844;5.304;2022-11-27T00:37:57;14.80;;;6.87;;
29938;SDS011;16799;50.844;5.304;2022-11-27T00:40:23;15.47;;;5.33;;
29938;SDS011;16799;50.844;5.304;2022-11-27T00:42:49;19.60;;;5.87;;
29938;SDS011;16799;50.844;5.304;2022-11-27T00:45:14;13.33;;;5.47;;
29938;SDS011;16799;50.844;5.304;2022-11-27T00:47:40;13.80;;;5.63;;
29938;SDS011;16799;50.844;5.304;2022-11-27T00:50:06;10.47;;;6.00;;
29938;SDS011;16799;50.844;5.304;2022-11-27T00:52:32;11.90;;;5.13;;
29938;SDS011;16799;50.844;5.304;2022-11-27T00:54:57;9.80;;;5.00;;
29938;SDS011;16799;50.844;5.304;2022-11-27T00:57:23;15.77;;;7.30;;
29938;SDS011;16799;50.844;5.304;2022-11-27T00:59:49;7.63;;;5.50;;
29938;SDS011;16799;50.844;5.304;2022-11-27T01:02:15;9.00;;;6.83;;
29938;SDS011;16799;50.844;5.304;2022-11-27T01:04:43;12.63;;;7.60;;
29938;SDS011;16799;50.844;5.304;2022-11-27T01:07:10;9.97;;;8.27;;
29938;SDS011;16799;50.844;5.304;2022-11-27T01:09:35;19.27;;;8.50;;
29938;SDS011;16799;50.844;5.304;2022-11-27T01:12:01;13.50;;;8.30;;
29938;SDS011;16799;50.844;5.304;2022-11-27T01:14:27;16.97;;;8.20;;
29938;SDS011;16799;50.844;5.304;2022-11-27T01:16:53;19.30;;;8.80;;
29938;SDS011;16799;50.844;5.304;2022-11-27T01:19:19;11.47;;;7.50;;
29938;SDS011;16799;50.844;5.304;2022-11-27T01:21:45;21.93;;;8.50;;
29938;SDS011;16799;50.844;5.304;2022-11-27T01:24:11;21.37;;;7.80;;
29938;SDS011;16799;50.844;5.304;2022-11-27T01:26:38;14.93;;;9.17;;
29938;SDS011;16799;50.844;5.304;2022-11-27T01:29:04;16.63;;;9.50;;
29938;SDS011;16799;50.844;5.304;2022-11-27T01:31:30;25.60;;;7.13;;
29938;SDS011;16799;50.844;5.304;2022-11-27T01:33:59;24.57;;;8.87;;
29938;SDS011;16799;50.844;5.304;2022-11-27T01:36:26;13.00;;;7.77;;
29938;SDS011;16799;50.844;5.304;2022-11-27T01:38:52;22.87;;;8.40;;
29938;SDS011;16799;50.844;5.304;2022-11-27T01:41:23;13.13;;;7.40;;
29938;SDS011;16799;50.844;5.304;2022-11-27T01:47:04;16.20;;;7.90;;
29938;SDS011;16799;50.844;5.304;2022-11-27T01:49:53;17.43;;;9.03;;
29938;SDS011;16799;50.844;5.304;2022-11-27T01:52:31;12.80;;;8.00;;
29938;SDS011;16799;50.844;5.304;2022-11-27T01:55:04;15.63;;;8.77;;
29938;SDS011;16799;50.844;5.304;2022-11-27T01:57:42;10.20;;;7.63;;
29938;SDS011;16799;50.844;5.304;2022-11-27T02:00:11;10.67;;;7.20;;
29938;SDS011;16799;50.844;5.304;2022-11-27T02:02:39;18.80;;;7.67;;
29938;SDS011;16799;50.844;5.304;2022-11-27T02:05:05;7.60;;;6.47;;
29938;SDS011;16799;50.844;5.304;2022-11-27T02:07:31;12.20;;;6.50;;
29938;SDS011;16799;50.844;5.304;2022-11-27T02:09:57;17.13;;;6.30;;
29938;SDS011;16799;50.844;5.304;2022-11-27T02:12:24;13.10;;;7.10;;
29938;SDS011;16799;50.844;5.304;2022-11-27T02:17:33;9.23;;;6.40;;
29938;SDS011;16799;50.844;5.304;2022-11-27T02:20:17;22.43;;;7.30;;
29938;SDS011;16799;50.844;5.304;2022-11-27T02:23:12;10.80;;;6.10;;
29938;SDS011;16799;50.844;5.304;2022-11-27T02:31:40;8.30;;;6.57;;
29938;SDS011;16799;50.844;5.304;2022-11-27T02:37:11;10.77;;;6.13;;
29938;SDS011;16799;50.844;5.304;2022-11-27T02:42:17;8.70;;;4.70;;
29938;SDS011;16799;50.844;5.304;2022-11-27T02:44:46;7.80;;;4.07;;
29938;SDS011;16799;50.844;5.304;2022-11-27T02:47:18;10.73;;;4.00;;
29938;SDS011;16799;50.844;5.304;2022-11-27T02:49:44;8.17;;;4.47;;
29938;SDS011;16799;50.844;5.304;2022-11-27T02:52:14;7.33;;;5.37;;
29938;SDS011;16799;50.844;5.304;2022-11-27T02:54:43;8.87;;;4.37;;
29938;SDS011;16799;50.844;5.304;2022-11-27T02:57:12;6.57;;;4.43;;
29938;SDS011;16799;50.844;5.304;2022-11-27T02:59:40;5.30;;;3.40;;
29938;SDS011;16799;50.844;5.304;2022-11-27T03:02:10;10.80;;;4.50;;
29938;SDS011;16799;50.844;5.304;2022-11-27T03:04:47;5.07;;;4.50;;
29938;SDS011;16799;50.844;5.304;2022-11-27T03:07:17;5.63;;;4.30;;
29938;SDS011;16799;50.844;5.304;2022-11-27T03:09:56;4.00;;;3.70;;
29938;SDS011;16799;50.844;5.304;2022-11-27T03:12:26;8.87;;;4.40;;
29938;SDS011;16799;50.844;5.304;2022-11-27T03:14:52;5.50;;;3.40;;
29938;SDS011;16799;50.844;5.304;2022-11-27T03:20:10;5.70;;;3.87;;
29938;SDS011;16799;50.844;5.304;2022-11-27T03:22:42;8.23;;;4.10;;
29938;SDS011;16799;50.844;5.304;2022-11-27T03:25:07;8.67;;;3.77;;
29938;SDS011;16799;50.844;5.304;2022-11-27T03:27:38;4.60;;;4.00;;
29938;SDS011;16799;50.844;5.304;2022-11-27T03:30:12;8.57;;;4.27;;
29938;SDS011;16799;50.844;5.304;2022-11-27T03:32:38;5.03;;;4.00;;
29938;SDS011;16799;50.844;5.304;2022-11-27T03:35:04;11.10;;;4.40;;
29938;SDS011;16799;50.844;5.304;2022-11-27T03:37:34;4.57;;;3.20;;
29938;SDS011;16799;50.844;5.304;2022-11-27T03:40:00;12.60;;;4.00;;
29938;SDS011;16799;50.844;5.304;2022-11-27T03:42:49;9.10;;;4.00;;
29938;SDS011;16799;50.844;5.304;2022-11-27T03:45:33;10.53;;;4.30;;
29938;SDS011;16799;50.844;5.304;2022-11-27T03:51:06;4.70;;;3.13;;
29938;SDS011;16799;50.844;5.304;2022-11-27T03:53:43;9.40;;;3.30;;
29938;SDS011;16799;50.844;5.304;2022-11-27T03:59:12;7.07;;;3.90;;
29938;SDS011;16799;50.844;5.304;2022-11-27T04:01:44;6.63;;;3.90;;
29938;SDS011;16799;50.844;5.304;2022-11-27T04:04:10;6.40;;;4.23;;
29938;SDS011;16799;50.844;5.304;2022-11-27T04:06:36;14.77;;;4.90;;
29938;SDS011;16799;50.844;5.304;2022-11-27T04:09:02;6.07;;;3.43;;
29938;SDS011;16799;50.844;5.304;2022-11-27T04:11:28;4.47;;;4.07;;
29938;SDS011;16799;50.844;5.304;2022-11-27T04:13:54;8.93;;;3.53;;
29938;SDS011;16799;50.844;5.304;2022-11-27T04:16:19;10.90;;;3.40;;
29938;SDS011;16799;50.844;5.304;2022-11-27T04:18:45;6.57;;;3.47;;
29938;SDS011;16799;50.844;5.304;2022-11-27T04:21:10;5.53;;;3.83;;
29938;SDS011;16799;50.844;5.304;2022-11-27T04:23:36;7.60;;;3.53;;
29938;SDS011;16799;50.844;5.304;2022-11-27T04:26:03;5.13;;;3.90;;
29938;SDS011;16799;50.844;5.304;2022-11-27T04:28:29;7.70;;;4.80;;
29938;SDS011;16799;50.844;5.304;2022-11-27T04:30:55;5.57;;;3.73;;
29938;SDS011;16799;50.844;5.304;2022-11-27T04:33:21;4.80;;;3.73;;
29938;SDS011;16799;50.844;5.304;2022-11-27T04:35:47;3.60;;;3.30;;
29938;SDS011;16799;50.844;5.304;2022-11-27T04:38:14;8.47;;;3.50;;
29938;SDS011;16799;50.844;5.304;2022-11-27T04:40:39;4.40;;;3.37;;
29938;SDS011;16799;50.844;5.304;2022-11-27T04:43:05;8.53;;;4.27;;
29938;SDS011;16799;50.844;5.304;2022-11-27T04:45:31;8.70;;;3.60;;
29938;SDS011;16799;50.844;5.304;2022-11-27T04:47:57;14.60;;;3.80;;
29938;SDS011;16799;50.844;5.304;2022-11-27T04:50:22;6.43;;;4.10;;
29938;SDS011;16799;50.844;5.304;2022-11-27T04:52:48;4.10;;;2.77;;
29938;SDS011;16799;50.844;5.304;2022-11-27T04:55:14;7.00;;;4.07;;
29938;SDS011;16799;50.844;5.304;2022-11-27T04:57:40;6.30;;;3.00;;
29938;SDS011;16799;50.844;5.304;2022-11-27T05:00:05;9.73;;;3.23;;
29938;SDS011;16799;50.844;5.304;2022-11-27T05:02:32;3.13;;;2.93;;
29938;SDS011;16799;50.844;5.304;2022-11-27T05:04:58;6.30;;;3.50;;
29938;SDS011;16799;50.844;5.304;2022-11-27T05:07:23;3.03;;;2.83;;
29938;SDS011;16799;50.844;5.304;2022-11-27T05:09:49;7.67;;;4.07;;
29938;SDS011;16799;50.844;5.304;2022-11-27T05:12:15;8.40;;;2.60;;
29938;SDS011;16799;50.844;5.304;2022-11-27T05:14:41;5.23;;;3.27;;
29938;SDS011;16799;50.844;5.304;2022-11-27T05:17:07;8.80;;;3.10;;
29938;SDS011;16799;50.844;5.304;2022-11-27T05:19:34;9.17;;;2.60;;
29938;SDS011;16799;50.844;5.304;2022-11-27T05:22:00;3.33;;;3.03;;
29938;SDS011;16799;50.844;5.304;2022-11-27T05:24:26;4.13;;;3.20;;
29938;SDS011;16799;50.844;5.304;2022-11-27T05:26:53;3.43;;;3.13;;
29938;SDS011;16799;50.844;5.304;2022-11-27T05:29:19;3.93;;;3.53;;
29938;SDS011;16799;50.844;5.304;2022-11-27T05:31:45;7.10;;;3.30;;
29938;SDS011;16799;50.844;5.304;2022-11-27T05:34:11;3.50;;;3.20;;
29938;SDS011;16799;50.844;5.304;2022-11-27T05:36:37;8.00;;;2.90;;
29938;SDS011;16799;50.844;5.304;2022-11-27T05:39:03;8.80;;;3.03;;
29938;SDS011;16799;50.844;5.304;2022-11-27T05:41:31;6.97;;;2.80;;
29938;SDS011;16799;50.844;5.304;2022-11-27T05:43:57;17.57;;;3.80;;
29938;SDS011;16799;50.844;5.304;2022-11-27T05:46:22;4.73;;;2.67;;
29938;SDS011;16799;50.844;5.304;2022-11-27T05:48:48;8.20;;;2.40;;
29938;SDS011;16799;50.844;5.304;2022-11-27T05:51:14;4.53;;;3.23;;
29938;SDS011;16799;50.844;5.304;2022-11-27T05:53:40;7.20;;;3.10;;
29938;SDS011;16799;50.844;5.304;2022-11-27T05:56:08;13.17;;;3.50;;
29938;SDS011;16799;50.844;5.304;2022-11-27T05:58:36;8.33;;;3.13;;
29938;SDS011;16799;50.844;5.304;2022-11-27T06:01:03;5.93;;;2.90;;
29938;SDS011;16799;50.844;5.304;2022-11-27T06:03:29;4.07;;;2.40;;
29938;SDS011;16799;50.844;5.304;2022-11-27T06:05:55;3.60;;;2.40;;
29938;SDS011;16799;50.844;5.304;2022-11-27T06:08:21;4.40;;;2.90;;
29938;SDS011;16799;50.844;5.304;2022-11-27T06:10:47;4.80;;;3.20;;
29938;SDS011;16799;50.844;5.304;2022-11-27T06:13:13;4.40;;;2.67;;
29938;SDS011;16799;50.844;5.304;2022-11-27T06:15:39;6.30;;;3.00;;
29938;SDS011;16799;50.844;5.304;2022-11-27T06:18:05;2.87;;;2.63;;
29938;SDS011;16799;50.844;5.304;2022-11-27T06:20:31;5.40;;;2.83;;
29938;SDS011;16799;50.844;5.304;2022-11-27T06:22:57;5.93;;;3.37;;
29938;SDS011;16799;50.844;5.304;2022-11-27T06:25:23;2.50;;;2.20;;
29938;SDS011;16799;50.844;5.304;2022-11-27T06:27:49;2.70;;;2.23;;
29938;SDS011;16799;50.844;5.304;2022-11-27T06:30:15;6.50;;;3.10;;
29938;SDS011;16799;50.844;5.304;2022-11-27T06:32:41;4.77;;;3.80;;
29938;SDS011;16799;50.844;5.304;2022-11-27T06:35:07;6.47;;;3.27;;
29938;SDS011;16799;50.844;5.304;2022-11-27T06:37:33;3.00;;;2.30;;
29938;SDS011;16799;50.844;5.304;2022-11-27T06:39:59;5.83;;;2.97;;
29938;SDS011;16799;50.844;5.304;2022-11-27T06:42:27;4.70;;;3.90;;
29938;SDS011;16799;50.844;5.304;2022-11-27T06:44:53;6.30;;;3.10;;
29938;SDS011;16799;50.844;5.304;2022-11-27T06:47:19;6.53;;;3.80;;
29938;SDS011;16799;50.844;5.304;2022-11-27T06:49:45;12.53;;;3.50;;
29938;SDS011;16799;50.844;5.304;2022-11-27T06:52:10;16.03;;;4.27;;
29938;SDS011;16799;50.844;5.304;2022-11-27T06:54:36;24.80;;;4.17;;
29938;SDS011;16799;50.844;5.304;2022-11-27T06:57:02;5.40;;;3.13;;
29938;SDS011;16799;50.844;5.304;2022-11-27T06:59:28;12.83;;;4.20;;
29938;SDS011;16799;50.844;5.304;2022-11-27T07:01:53;6.40;;;4.70;;
29938;SDS011;16799;50.844;5.304;2022-11-27T07:04:19;5.67;;;3.30;;
29938;SDS011;16799;50.844;5.304;2022-11-27T07:06:45;5.57;;;3.77;;
29938;SDS011;16799;50.844;5.304;2022-11-27T07:09:10;7.10;;;3.97;;
29938;SDS011;16799;50.844;5.304;2022-11-27T07:11:37;4.67;;;3.50;;
29938;SDS011;16799;50.844;5.304;2022-11-27T07:14:03;7.23;;;5.67;;
29938;SDS011;16799;50.844;5.304;2022-11-27T07:16:31;5.07;;;4.57;;
29938;SDS011;16799;50.844;5.304;2022-11-27T07:19:00;5.47;;;4.00;;
29938;SDS011;16799;50.844;5.304;2022-11-27T07:21:27;8.17;;;4.70;;
29938;SDS011;16799;50.844;5.304;2022-11-27T07:23:53;8.13;;;4.73;;
29938;SDS011;16799;50.844;5.304;2022-11-27T07:26:21;10.67;;;5.37;;
29938;SDS011;16799;50.844;5.304;2022-11-27T07:28:48;8.00;;;6.37;;
29938;SDS011;16799;50.844;5.304;2022-11-27T07:31:19;11.50;;;7.20;;
29938;SDS011;16799;50.844;5.304;2022-11-27T07:33:46;8.07;;;5.63;;
29938;SDS011;16799;50.844;5.304;2022-11-27T07:38:39;13.87;;;7.50;;
29938;SDS011;16799;50.844;5.304;2022-11-27T07:41:05;10.20;;;5.77;;
29938;SDS011;16799;50.844;5.304;2022-11-27T07:43:32;14.37;;;6.20;;
29938;SDS011;16799;50.844;5.304;2022-11-27T07:46:02;9.00;;;7.80;;
29938;SDS011;16799;50.844;5.304;2022-11-27T07:48:28;10.47;;;7.20;;
29938;SDS011;16799;50.844;5.304;2022-11-27T07:50:54;10.23;;;5.37;;
29938;SDS011;16799;50.844;5.304;2022-11-27T07:53:19;7.43;;;6.60;;
29938;SDS011;16799;50.844;5.304;2022-11-27T07:55:45;7.20;;;5.93;;
29938;SDS011;16799;50.844;5.304;2022-11-27T07:58:10;9.53;;;5.90;;
29938;SDS011;16799;50.844;5.304;2022-11-27T08:00:36;12.53;;;6.63;;
29938;SDS011;16799;50.844;5.304;2022-11-27T08:03:02;12.23;;;5.70;;
29938;SDS011;16799;50.844;5.304;2022-11-27T08:05:28;14.57;;;6.77;;
29938;SDS011;16799;50.844;5.304;2022-11-27T08:07:54;14.53;;;6.73;;
29938;SDS011;16799;50.844;5.304;2022-11-27T08:10:20;10.10;;;6.60;;
29938;SDS011;16799;50.844;5.304;2022-11-27T08:12:45;9.67;;;7.63;;
29938;SDS011;16799;50.844;5.304;2022-11-27T08:15:11;11.50;;;7.33;;
29938;SDS011;16799;50.844;5.304;2022-11-27T08:17:38;8.90;;;7.10;;
29938;SDS011;16799;50.844;5.304;2022-11-27T08:20:04;19.60;;;7.37;;
29938;SDS011;16799;50.844;5.304;2022-11-27T08:22:30;11.73;;;8.60;;
29938;SDS011;16799;50.844;5.304;2022-11-27T08:24:56;8.47;;;6.73;;
29938;SDS011;16799;50.844;5.304;2022-11-27T08:27:22;11.17;;;8.23;;
29938;SDS011;16799;50.844;5.304;2022-11-27T08:29:47;8.50;;;7.10;;
29938;SDS011;16799;50.844;5.304;2022-11-27T08:32:13;10.70;;;7.10;;
29938;SDS011;16799;50.844;5.304;2022-11-27T08:34:39;10.90;;;7.90;;
29938;SDS011;16799;50.844;5.304;2022-11-27T08:37:05;8.40;;;7.40;;
29938;SDS011;16799;50.844;5.304;2022-11-27T08:39:31;21.17;;;7.70;;
29938;SDS011;16799;50.844;5.304;2022-11-27T08:41:57;7.40;;;6.33;;
29938;SDS011;16799;50.844;5.304;2022-11-27T08:44:23;10.30;;;7.13;;
29938;SDS011;16799;50.844;5.304;2022-11-27T08:46:49;6.53;;;5.50;;
29938;SDS011;16799;50.844;5.304;2022-11-27T08:49:15;7.40;;;6.20;;
29938;SDS011;16799;50.844;5.304;2022-11-27T08:51:41;6.77;;;5.10;;
29938;SDS011;16799;50.844;5.304;2022-11-27T08:54:06;17.23;;;6.77;;
29938;SDS011;16799;50.844;5.304;2022-11-27T08:56:32;8.07;;;6.73;;
29938;SDS011;16799;50.844;5.304;2022-11-27T08:58:58;8.77;;;7.90;;
29938;SDS011;16799;50.844;5.304;2022-11-27T09:01:28;17.53;;;6.00;;
29938;SDS011;16799;50.844;5.304;2022-11-27T09:03:56;9.03;;;7.27;;
29938;SDS011;16799;50.844;5.304;2022-11-27T09:06:23;10.97;;;7.30;;
29938;SDS011;16799;50.844;5.304;2022-11-27T09:08:50;6.10;;;5.53;;
29938;SDS011;16799;50.844;5.304;2022-11-27T09:11:17;5.97;;;5.40;;
29938;SDS011;16799;50.844;5.304;2022-11-27T09:13:44;6.40;;;5.80;;
29938;SDS011;16799;50.844;5.304;2022-11-27T09:16:11;8.07;;;6.47;;
29938;SDS011;16799;50.844;5.304;2022-11-27T09:18:39;9.70;;;6.70;;
29938;SDS011;16799;50.844;5.304;2022-11-27T09:21:08;7.07;;;6.47;;
29938;SDS011;16799;50.844;5.304;2022-11-27T09:23:35;7.50;;;6.30;;
29938;SDS011;16799;50.844;5.304;2022-11-27T09:26:02;10.97;;;7.83;;
29938;SDS011;16799;50.844;5.304;2022-11-27T09:28:33;8.90;;;6.50;;
29938;SDS011;16799;50.844;5.304;2022-11-27T09:31:00;17.40;;;7.10;;
29938;SDS011;16799;50.844;5.304;2022-11-27T09:33:28;8.90;;;8.07;;
29938;SDS011;16799;50.844;5.304;2022-11-27T09:35:55;7.17;;;5.13;;
29938;SDS011;16799;50.844;5.304;2022-11-27T09:38:21;10.20;;;7.00;;
29938;SDS011;16799;50.844;5.304;2022-11-27T09:40:51;8.23;;;6.90;;
29938;SDS011;16799;50.844;5.304;2022-11-27T09:43:30;6.67;;;6.07;;
29938;SDS011;16799;50.844;5.304;2022-11-27T09:46:00;7.33;;;6.63;;
29938;SDS011;16799;50.844;5.304;2022-11-27T09:48:33;8.47;;;6.97;;
29938;SDS011;16799;50.844;5.304;2022-11-27T09:51:14;13.70;;;6.33;;
29938;SDS011;16799;50.844;5.304;2022-11-27T09:53:51;5.83;;;5.27;;
29938;SDS011;16799;50.844;5.304;2022-11-27T09:56:24;8.60;;;5.77;;
29938;SDS011;16799;50.844;5.304;2022-11-27T09:58:56;14.53;;;10.30;;
29938;SDS011;16799;50.844;5.304;2022-11-27T10:01:25;16.60;;;14.73;;
29938;SDS011;16799;50.844;5.304;2022-11-27T10:03:52;9.17;;;7.10;;
29938;SDS011;16799;50.844;5.304;2022-11-27T10:06:37;9.40;;;6.63;;
29938;SDS011;16799;50.844;5.304;2022-11-27T10:09:20;8.50;;;7.17;;
29938;SDS011;16799;50.844;5.304;2022-11-27T10:20:09;9.63;;;7.17;;
29938;SDS011;16799;50.844;5.304;2022-11-27T10:22:45;6.50;;;5.53;;
29938;SDS011;16799;50.844;5.304;2022-11-27T10:25:27;8.60;;;5.50;;
29938;SDS011;16799;50.844;5.304;2022-11-27T10:33:35;15.63;;;5.93;;
29938;SDS011;16799;50.844;5.304;2022-11-27T10:39:06;6.23;;;5.70;;
29938;SDS011;16799;50.844;5.304;2022-11-27T10:41:45;6.30;;;5.57;;
29938;SDS011;16799;50.844;5.304;2022-11-27T10:44:27;8.20;;;6.23;;
29938;SDS011;16799;50.844;5.304;2022-11-27T10:46:58;6.47;;;5.67;;
29938;SDS011;16799;50.844;5.304;2022-11-27T10:49:27;12.13;;;6.23;;
29938;SDS011;16799;50.844;5.304;2022-11-27T10:51:53;13.67;;;5.87;;
29938;SDS011;16799;50.844;5.304;2022-11-27T10:54:25;7.50;;;6.80;;
29938;SDS011;16799;50.844;5.304;2022-11-27T11:02:33;6.53;;;5.93;;
29938;SDS011;16799;50.844;5.304;2022-11-27T11:05:12;8.40;;;6.87;;
29938;SDS011;16799;50.844;5.304;2022-11-27T11:10:27;7.03;;;6.33;;
29938;SDS011;16799;50.844;5.304;2022-11-27T11:13:17;8.23;;;6.30;;
29938;SDS011;16799;50.844;5.304;2022-11-27T11:15:47;7.20;;;6.03;;
29938;SDS011;16799;50.844;5.304;2022-11-27T11:18:20;14.00;;;6.37;;
29938;SDS011;16799;50.844;5.304;2022-11-27T11:20:49;8.30;;;5.40;;
29938;SDS011;16799;50.844;5.304;2022-11-27T11:23:20;5.30;;;4.80;;
29938;SDS011;16799;50.844;5.304;2022-11-27T11:25:54;5.60;;;5.03;;
29938;SDS011;16799;50.844;5.304;2022-11-27T11:28:23;4.50;;;4.10;;
29938;SDS011;16799;50.844;5.304;2022-11-27T11:30:53;6.43;;;5.00;;
29938;SDS011;16799;50.844;5.304;2022-11-27T11:33:25;6.90;;;5.13;;
29938;SDS011;16799;50.844;5.304;2022-11-27T11:35:53;11.90;;;6.47;;
29938;SDS011;16799;50.844;5.304;2022-11-27T11:38:24;17.00;;;7.20;;
29938;SDS011;16799;50.844;5.304;2022-11-27T11:40:58;4.50;;;3.73;;
29938;SDS011;16799;50.844;5.304;2022-11-27T11:43:28;9.10;;;6.60;;
29938;SDS011;16799;50.844;5.304;2022-11-27T11:48:51;7.37;;;5.20;;
29938;SDS011;16799;50.844;5.304;2022-11-27T11:56:40;5.63;;;5.10;;
29938;SDS011;16799;50.844;5.304;2022-11-27T12:11:12;8.80;;;7.00;;
29938;SDS011;16799;50.844;5.304;2022-11-27T12:16:42;23.03;;;11.63;;
29938;SDS011;16799;50.844;5.304;2022-11-27T12:22:49;14.00;;;6.70;;
29938;SDS011;16799;50.844;5.304;2022-11-27T12:24:54;14.47;;;7.17;;
29938;SDS011;16799;50.844;5.304;2022-11-27T12:27:37;11.70;;;8.47;;
29938;SDS011;16799;50.844;5.304;2022-11-27T12:38:04;7.50;;;6.73;;
29938;SDS011;16799;50.844;5.304;2022-11-27T12:43:39;7.93;;;7.10;;
29938;SDS011;16799;50.844;5.304;2022-11-27T12:49:33;11.00;;;8.80;;
29938;SDS011;16799;50.844;5.304;2022-11-27T12:52:18;10.40;;;7.30;;
29938;SDS011;16799;50.844;5.304;2022-11-27T12:54:49;12.80;;;8.00;;
29938;SDS011;16799;50.844;5.304;2022-11-27T12:57:29;10.77;;;8.00;;
29938;SDS011;16799;50.844;5.304;2022-11-27T13:00:15;13.13;;;7.30;;
29938;SDS011;16799;50.844;5.304;2022-11-27T13:05:45;8.87;;;7.93;;
29938;SDS011;16799;50.844;5.304;2022-11-27T13:11:00;7.67;;;6.80;;
29938;SDS011;16799;50.844;5.304;2022-11-27T13:13:32;9.90;;;7.20;;
29938;SDS011;16799;50.844;5.304;2022-11-27T13:16:13;11.93;;;7.60;;
29938;SDS011;16799;50.844;5.304;2022-11-27T13:19:18;12.50;;;7.40;;
29938;SDS011;16799;50.844;5.304;2022-11-27T13:21:49;8.63;;;7.63;;
29938;SDS011;16799;50.844;5.304;2022-11-27T13:24:18;17.67;;;8.50;;
29938;SDS011;16799;50.844;5.304;2022-11-27T13:32:25;11.77;;;7.87;;
29938;SDS011;16799;50.844;5.304;2022-11-27T13:35:05;11.90;;;5.60;;
29938;SDS011;16799;50.844;5.304;2022-11-27T13:37:43;12.97;;;8.80;;
29938;SDS011;16799;50.844;5.304;2022-11-27T13:42:41;8.30;;;5.97;;
29938;SDS011;16799;50.844;5.304;2022-11-27T13:45:25;17.37;;;8.40;;
29938;SDS011;16799;50.844;5.304;2022-11-27T13:47:53;11.30;;;8.33;;
29938;SDS011;16799;50.844;5.304;2022-11-27T13:50:21;12.40;;;9.10;;
29938;SDS011;16799;50.844;5.304;2022-11-27T13:57:57;9.00;;;8.10;;
29938;SDS011;16799;50.844;5.304;2022-11-27T14:00:35;11.80;;;6.63;;
29938;SDS011;16799;50.844;5.304;2022-11-27T14:03:04;9.07;;;7.63;;
29938;SDS011;16799;50.844;5.304;2022-11-27T14:05:43;8.77;;;6.53;;
29938;SDS011;16799;50.844;5.304;2022-11-27T14:08:23;11.43;;;6.60;;
29938;SDS011;16799;50.844;5.304;2022-11-27T14:11:06;10.30;;;7.83;;
29938;SDS011;16799;50.844;5.304;2022-11-27T14:13:45;11.63;;;7.00;;
29938;SDS011;16799;50.844;5.304;2022-11-27T14:16:30;5.77;;;5.27;;
29938;SDS011;16799;50.844;5.304;2022-11-27T14:19:43;7.33;;;6.30;;
29938;SDS011;16799;50.844;5.304;2022-11-27T14:21:58;9.37;;;7.90;;
29938;SDS011;16799;50.844;5.304;2022-11-27T14:24:37;15.23;;;7.50;;
29938;SDS011;16799;50.844;5.304;2022-11-27T14:27:30;10.63;;;8.73;;
29938;SDS011;16799;50.844;5.304;2022-11-27T14:30:08;12.63;;;9.53;;
29938;SDS011;16799;50.844;5.304;2022-11-27T14:32:47;10.70;;;9.00;;
29938;SDS011;16799;50.844;5.304;2022-11-27T14:35:24;13.10;;;10.17;;
29938;SDS011;16799;50.844;5.304;2022-11-27T14:37:51;19.70;;;14.23;;
29938;SDS011;16799;50.844;5.304;2022-11-27T14:40:21;26.23;;;16.10;;
29938;SDS011;16799;50.844;5.304;2022-11-27T14:42:49;20.83;;;12.77;;
29938;SDS011;16799;50.844;5.304;2022-11-27T14:45:16;21.33;;;13.23;;
29938;SDS011;16799;50.844;5.304;2022-11-27T14:47:46;14.70;;;10.50;;
29938;SDS011;16799;50.844;5.304;2022-11-27T14:50:14;34.50;;;20.50;;
29938;SDS011;16799;50.844;5.304;2022-11-27T14:52:41;11.60;;;9.10;;
29938;SDS011;16799;50.844;5.304;2022-11-27T14:55:13;9.93;;;6.53;;
29938;SDS011;16799;50.844;5.304;2022-11-27T14:57:40;13.40;;;8.10;;
29938;SDS011;16799;50.844;5.304;2022-11-27T15:00:22;17.10;;;11.40;;
29938;SDS011;16799;50.844;5.304;2022-11-27T15:02:51;21.03;;;13.83;;
29938;SDS011;16799;50.844;5.304;2022-11-27T15:05:22;13.57;;;8.10;;
29938;SDS011;16799;50.844;5.304;2022-11-27T15:07:50;12.73;;;10.53;;
29938;SDS011;16799;50.844;5.304;2022-11-27T15:10:27;26.33;;;14.23;;
29938;SDS011;16799;50.844;5.304;2022-11-27T15:12:59;19.33;;;13.10;;
29938;SDS011;16799;50.844;5.304;2022-11-27T15:15:27;10.07;;;9.07;;
29938;SDS011;16799;50.844;5.304;2022-11-27T15:17:57;9.60;;;8.33;;
29938;SDS011;16799;50.844;5.304;2022-11-27T15:20:40;10.50;;;8.70;;
29938;SDS011;16799;50.844;5.304;2022-11-27T15:23:19;11.70;;;8.03;;
29938;SDS011;16799;50.844;5.304;2022-11-27T15:31:28;15.03;;;8.17;;
29938;SDS011;16799;50.844;5.304;2022-11-27T15:33:55;13.50;;;8.50;;
29938;SDS011;16799;50.844;5.304;2022-11-27T15:36:22;11.90;;;7.80;;
29938;SDS011;16799;50.844;5.304;2022-11-27T15:38:48;16.57;;;9.37;;
29938;SDS011;16799;50.844;5.304;2022-11-27T15:41:34;9.53;;;8.53;;
29938;SDS011;16799;50.844;5.304;2022-11-27T15:44:00;13.87;;;8.60;;
29938;SDS011;16799;50.844;5.304;2022-11-27T15:46:28;17.50;;;11.30;;
29938;SDS011;16799;50.844;5.304;2022-11-27T15:48:58;12.80;;;7.37;;
29938;SDS011;16799;50.844;5.304;2022-11-27T15:51:24;10.00;;;8.03;;
29938;SDS011;16799;50.844;5.304;2022-11-27T15:53:49;12.43;;;7.93;;
29938;SDS011;16799;50.844;5.304;2022-11-27T15:56:15;19.30;;;11.87;;
29938;SDS011;16799;50.844;5.304;2022-11-27T15:58:42;24.83;;;13.23;;
29938;SDS011;16799;50.844;5.304;2022-11-27T16:01:08;10.20;;;7.50;;
29938;SDS011;16799;50.844;5.304;2022-11-27T16:03:35;11.23;;;7.47;;
29938;SDS011;16799;50.844;5.304;2022-11-27T16:06:02;9.90;;;7.30;;
29938;SDS011;16799;50.844;5.304;2022-11-27T16:08:28;7.90;;;6.23;;
29938;SDS011;16799;50.844;5.304;2022-11-27T16:10:57;15.03;;;8.57;;
29938;SDS011;16799;50.844;5.304;2022-11-27T16:13:28;10.57;;;8.43;;
29938;SDS011;16799;50.844;5.304;2022-11-27T16:15:54;15.93;;;8.60;;
29938;SDS011;16799;50.844;5.304;2022-11-27T16:18:20;11.07;;;8.60;;
29938;SDS011;16799;50.844;5.304;2022-11-27T16:20:45;11.00;;;7.50;;
29938;SDS011;16799;50.844;5.304;2022-11-27T16:23:11;11.67;;;8.50;;
29938;SDS011;16799;50.844;5.304;2022-11-27T16:25:37;11.03;;;8.93;;
29938;SDS011;16799;50.844;5.304;2022-11-27T16:28:03;17.20;;;9.30;;
29938;SDS011;16799;50.844;5.304;2022-11-27T16:30:29;11.70;;;8.30;;
29938;SDS011;16799;50.844;5.304;2022-11-27T16:32:55;12.37;;;10.00;;
29938;SDS011;16799;50.844;5.304;2022-11-27T16:35:20;12.57;;;8.93;;
29938;SDS011;16799;50.844;5.304;2022-11-27T16:37:46;11.40;;;8.87;;
29938;SDS011;16799;50.844;5.304;2022-11-27T16:40:12;11.13;;;8.33;;
29938;SDS011;16799;50.844;5.304;2022-11-27T16:42:38;11.90;;;8.33;;
29938;SDS011;16799;50.844;5.304;2022-11-27T16:45:04;11.47;;;10.37;;
29938;SDS011;16799;50.844;5.304;2022-11-27T16:47:30;10.53;;;8.80;;
29938;SDS011;16799;50.844;5.304;2022-11-27T16:49:55;8.40;;;7.57;;
29938;SDS011;16799;50.844;5.304;2022-11-27T16:52:21;10.30;;;8.50;;